Time;durP1;ratioP1;P1;durP2;ratioP2;P2;SDS_P1;SDS_P2;PMS_P1;PMS_P2;Temp;Humidity;BMP_temperature;BMP_pressure;BME280_temperature;BME280_humidity;BME280_pressure;Samples;Min_cycle;Max_cycle;Signal;HPM_P1;HPM_P2
2021/01/29 00:01:41;;;;;;;3.42;1.70;;;9.90;99.90;;;;;;5091074;28;20032;-69
2021/01/29 00:04:07;;;;;;;2.50;0.90;;;9.90;99.90;;;;;;5092172;28;20397;-69
2021/01/29 00:06:34;;;;;;;2.80;0.70;;;9.80;99.90;;;;;;5075466;28;20071;-70
2021/01/29 00:09:00;;;;;;;3.08;1.65;;;9.80;99.90;;;;;;5074529;28;20056;-70
2021/01/29 00:11:26;;;;;;;2.38;1.40;;;9.80;99.90;;;;;;5081550;28;20169;-70
2021/01/29 00:13:52;;;;;;;2.65;1.23;;;9.80;99.90;;;;;;5076954;28;20048;-70
2021/01/29 00:16:18;;;;;;;3.72;2.33;;;9.80;99.90;;;;;;5074349;28;20103;-70
2021/01/29 00:18:45;;;;;;;4.40;1.80;;;9.90;99.90;;;;;;5074956;28;20024;-70
2021/01/29 00:21:11;;;;;;;5.65;1.70;;;9.90;99.90;;;;;;5091164;28;20051;-70
2021/01/29 00:23:37;;;;;;;4.15;1.52;;;9.90;99.90;;;;;;5075911;28;20043;-70
2021/01/29 00:26:03;;;;;;;3.38;1.50;;;10.00;99.90;;;;;;5078410;28;20051;-70
2021/01/29 00:28:30;;;;;;;5.05;2.70;;;10.00;99.90;;;;;;5074134;28;20036;-70
2021/01/29 00:30:56;;;;;;;5.00;2.30;;;10.10;99.90;;;;;;5073351;28;20032;-70
2021/01/29 00:33:24;;;;;;;4.38;2.63;;;10.10;99.90;;;;;;5073903;28;20143;-70
2021/01/29 00:35:51;;;;;;;6.65;3.33;;;10.10;99.90;;;;;;5074278;28;20033;-70
2021/01/29 00:38:17;;;;;;;5.65;2.75;;;10.10;99.90;;;;;;5074089;28;20037;-70
2021/01/29 00:40:43;;;;;;;8.40;4.63;;;10.10;99.90;;;;;;5074194;28;20040;-70
2021/01/29 00:43:09;;;;;;;8.07;3.22;;;10.10;99.90;;;;;;5073886;28;20599;-70
2021/01/29 00:45:38;;;;;;;28.55;21.58;;;10.10;99.90;;;;;;5074564;28;20037;-70
2021/01/29 00:48:06;;;;;;;19.10;12.05;;;10.10;99.90;;;;;;5074394;28;20037;-71
2021/01/29 00:50:33;;;;;;;9.95;5.70;;;10.10;99.90;;;;;;5089770;28;20037;-70
2021/01/29 00:52:59;;;;;;;7.13;4.43;;;10.00;99.90;;;;;;5087900;28;20043;-70
2021/01/29 00:55:26;;;;;;;8.73;2.83;;;10.00;99.90;;;;;;5073389;28;20045;-70
2021/01/29 00:57:59;;;;;;;3.15;1.83;;;9.90;99.90;;;;;;5086991;28;20037;-70
2021/01/29 01:00:44;;;;;;;29.98;16.10;;;9.90;99.90;;;;;;5074358;28;20099;-70
2021/01/29 01:03:19;;;;;;;35.70;20.77;;;9.80;99.90;;;;;;5059819;28;20041;-70
2021/01/29 01:05:45;;;;;;;17.55;10.02;;;9.80;99.90;;;;;;5101846;28;20465;-70
2021/01/29 01:08:19;;;;;;;17.15;8.95;;;9.80;99.90;;;;;;5090169;28;20488;-70
2021/01/29 01:11:04;;;;;;;11.95;7.97;;;9.70;99.90;;;;;;5083214;28;20036;-70
2021/01/29 01:13:46;;;;;;;5.18;2.58;;;9.60;99.90;;;;;;5084639;28;20477;-70
2021/01/29 01:16:31;;;;;;;6.85;3.72;;;9.60;99.90;;;;;;5073819;28;20062;-70
2021/01/29 01:19:02;;;;;;;;;;;9.50;99.90;;;;;;5087160;28;20467;-70
2021/01/29 01:21:41;;;;;;;5.13;2.40;;;9.50;99.90;;;;;;5079248;28;19916;-70
2021/01/29 01:24:27;;;;;;;5.38;2.75;;;9.50;99.90;;;;;;5072651;28;20044;-70
2021/01/29 01:26:53;;;;;;;3.97;1.98;;;9.50;99.90;;;;;;5080400;28;20048;-70
2021/01/29 01:29:38;;;;;;;2.35;1.45;;;9.40;99.90;;;;;;5078159;28;20079;-70
2021/01/29 01:32:05;;;;;;;3.95;1.20;;;9.40;99.90;;;;;;5087912;28;20045;-70
2021/01/29 01:35:00;;;;;;;5.15;1.80;;;9.50;99.90;;;;;;5073031;28;20056;-70
2021/01/29 01:37:30;;;;;;;1.55;0.90;;;9.60;99.90;;;;;;5070958;28;20037;-70
2021/01/29 01:40:19;;;;;;;2.28;0.73;;;9.80;99.90;;;;;;5072901;28;20048;-70
2021/01/29 01:42:45;;;;;;;1.73;0.50;;;9.90;99.90;;;;;;5073025;28;20065;-70
2021/01/29 01:46:02;;;;;;;1.85;0.50;;;9.90;99.90;;;;;;5087963;28;20036;-70
2021/01/29 01:48:48;;;;;;;1.63;0.60;;;9.90;99.90;;;;;;5054729;28;20072;-70
2021/01/29 01:52:15;;;;;;;3.95;0.77;;;9.80;99.90;;;;;;5053503;28;20048;-70
2021/01/29 01:55:11;;;;;;;1.75;0.60;;;9.80;99.90;;;;;;5079793;28;20040;-70
2021/01/29 01:57:47;;;;;;;4.10;0.70;;;9.80;99.90;;;;;;5091183;28;20032;-70
2021/01/29 02:00:25;;;;;;;2.45;0.82;;;9.80;99.90;;;;;;5070678;28;20037;-70
2021/01/29 02:03:17;;;;;;;3.03;0.82;;;9.70;99.90;;;;;;5089520;28;20044;-70
2021/01/29 02:06:05;;;;;;;4.43;0.88;;;9.70;99.90;;;;;;5072587;28;20409;-70
2021/01/29 02:08:46;;;;;;;2.47;0.70;;;9.70;99.90;;;;;;5088380;28;20389;-70
2021/01/29 02:11:45;;;;;;;4.88;0.80;;;9.60;99.90;;;;;;5046463;28;20043;-70
2021/01/29 02:14:37;;;;;;;2.80;0.77;;;9.60;99.90;;;;;;5065995;28;20067;-69
2021/01/29 02:17:51;;;;;;;2.67;0.80;;;9.50;99.90;;;;;;5072375;28;20040;-70
2021/01/29 02:21:07;;;;;;;2.97;0.77;;;9.50;99.90;;;;;;5071907;28;20462;-70
2021/01/29 02:23:55;;;;;;;3.72;0.93;;;9.50;99.90;;;;;;5084829;28;20033;-70
2021/01/29 02:26:53;;;;;;;2.42;1.00;;;9.50;99.90;;;;;;5071867;28;20371;-70
2021/01/29 02:29:46;;;;;;;3.90;1.25;;;9.40;99.90;;;;;;5085981;28;20040;-70
2021/01/29 02:32:30;;;;;;;;;;;9.40;99.90;;;;;;5072033;28;20037;-70
2021/01/29 02:35:23;;;;;;;2.40;1.10;;;9.40;99.90;;;;;;5094766;28;20019;-70
2021/01/29 02:38:18;;;;;;;2.53;1.20;;;9.30;99.90;;;;;;5082347;28;20051;-69
2021/01/29 02:41:02;;;;;;;3.80;1.30;;;9.30;99.90;;;;;;5045436;28;20041;-69
2021/01/29 02:43:57;;;;;;;2.92;1.40;;;9.30;99.90;;;;;;5082490;28;20044;-69
2021/01/29 02:47:01;;;;;;;2.60;1.08;;;9.30;99.90;;;;;;5071885;28;20052;-69
2021/01/29 02:50:09;;;;;;;2.78;0.90;;;9.30;99.90;;;;;;5072338;28;20366;-70
2021/01/29 02:53:09;;;;;;;4.40;1.20;;;9.30;99.90;;;;;;5078809;28;20045;-70
2021/01/29 02:56:12;;;;;;;3.58;1.30;;;9.30;99.90;;;;;;5072211;28;20036;-71
2021/01/29 02:59:12;;;;;;;2.45;1.20;;;9.40;99.90;;;;;;5071849;28;20045;-70
2021/01/29 03:02:06;;;;;;;4.47;1.63;;;9.40;99.90;;;;;;5071896;28;20045;-71
2021/01/29 03:05:00;;;;;;;5.15;1.48;;;9.40;99.90;;;;;;5087524;28;20520;-70
2021/01/29 03:07:37;;;;;;;2.78;1.60;;;9.40;99.90;;;;;;5071822;28;20037;-69
2021/01/29 03:10:47;;;;;;;4.65;2.28;;;9.30;99.90;;;;;;5071302;28;20482;-69
2021/01/29 03:13:48;;;;;;;3.33;1.98;;;9.40;99.90;;;;;;5077188;28;20473;-69
2021/01/29 03:16:47;;;;;;;5.45;2.13;;;9.40;99.90;;;;;;5080850;28;20052;-69
2021/01/29 03:19:40;;;;;;;3.85;1.95;;;9.40;99.90;;;;;;5075654;28;20029;-69
2021/01/29 03:22:33;;;;;;;2.63;1.73;;;9.30;99.90;;;;;;5085243;28;20040;-69
2021/01/29 03:25:23;;;;;;;3.67;2.25;;;9.30;99.90;;;;;;5075230;28;20041;-69
2021/01/29 03:28:24;;;;;;;3.08;1.95;;;9.40;99.90;;;;;;5082723;28;20040;-69
2021/01/29 03:31:13;;;;;;;3.13;1.83;;;9.40;99.90;;;;;;5076531;28;20040;-69
2021/01/29 03:34:08;;;;;;;3.50;2.03;;;9.40;99.90;;;;;;5075884;28;20048;-69
2021/01/29 03:37:02;;;;;;;2.70;1.77;;;9.40;99.90;;;;;;5075769;28;20064;-69
2021/01/29 03:40:07;;;;;;;3.40;1.67;;;9.40;99.90;;;;;;5072666;28;20075;-69
2021/01/29 03:43:16;;;;;;;2.58;1.60;;;9.40;99.90;;;;;;5055712;28;20538;-70
2021/01/29 03:46:26;;;;;;;2.83;1.80;;;9.40;99.90;;;;;;5064433;28;20051;-69
2021/01/29 03:49:22;;;;;;;3.13;1.70;;;9.40;99.90;;;;;;5089745;28;20036;-69
2021/01/29 03:52:34;;;;;;;2.70;1.50;;;9.40;99.90;;;;;;5075111;28;20036;-69
2021/01/29 03:55:45;;;;;;;3.72;1.70;;;9.40;99.90;;;;;;5044173;28;20052;-69
2021/01/29 03:58:35;;;;;;;3.00;1.48;;;9.50;99.90;;;;;;5084472;28;20347;-69
2021/01/29 04:01:26;;;;;;;4.22;2.00;;;9.50;99.90;;;;;;5095923;28;20036;-69
2021/01/29 04:04:32;;;;;;;4.80;1.95;;;9.50;99.90;;;;;;5075264;28;20045;-69
2021/01/29 04:07:29;;;;;;;3.42;1.70;;;9.40;99.90;;;;;;5074800;28;20048;-70
2021/01/29 04:10:19;;;;;;;3.65;1.92;;;9.50;99.90;;;;;;5086348;28;20044;-69
2021/01/29 04:13:01;;;;;;;2.25;1.55;;;9.50;99.90;;;;;;5080006;28;20040;-69
2021/01/29 04:15:49;;;;;;;3.38;1.85;;;9.50;99.90;;;;;;5087185;28;20047;-69
2021/01/29 04:18:22;;;;;;;6.05;1.65;;;9.50;99.90;;;;;;5078987;28;20045;-70
2021/01/29 04:20:59;;;;;;;2.60;1.42;;;9.50;99.90;;;;;;5074825;28;20032;-69
2021/01/29 04:23:53;;;;;;;3.45;1.70;;;9.50;99.90;;;;;;5076325;28;20062;-70
2021/01/29 04:26:26;;;;;;;2.75;1.55;;;9.50;99.90;;;;;;5081578;28;20488;-70
2021/01/29 04:29:01;;;;;;;4.20;1.45;;;9.50;99.90;;;;;;5073479;28;20032;-70
2021/01/29 04:31:29;;;;;;;4.68;1.80;;;9.50;99.90;;;;;;5074218;28;20040;-70
2021/01/29 04:34:06;;;;;;;1.67;1.02;;;9.50;99.90;;;;;;5074788;28;20049;-70
2021/01/29 04:36:35;;;;;;;2.75;1.50;;;9.50;99.90;;;;;;5076514;28;20231;-70
2021/01/29 04:39:21;;;;;;;2.45;1.50;;;9.50;99.90;;;;;;5088337;28;20381;-70
2021/01/29 04:42:25;;;;;;;3.30;1.27;;;9.60;99.90;;;;;;5074547;28;20061;-70
2021/01/29 04:45:16;;;;;;;3.70;1.83;;;9.60;99.90;;;;;;5074138;28;20036;-70
2021/01/29 04:47:53;;;;;;;;;;;9.60;99.90;;;;;;5082537;28;20032;-70
2021/01/29 04:50:43;;;;;;;225.02;87.07;;;9.60;99.90;;;;;;5074815;28;19916;-70
2021/01/29 04:53:18;;;;;;;35.40;17.00;;;9.60;99.90;;;;;;5074389;28;20060;-70
2021/01/29 04:56:03;;;;;;;12.50;5.88;;;9.60;99.90;;;;;;5074106;28;20036;-70
2021/01/29 04:58:33;;;;;;;38.20;19.92;;;9.60;99.90;;;;;;5086110;28;20039;-69
2021/01/29 05:01:37;;;;;;;30.13;12.98;;;9.60;99.90;;;;;;5080239;28;20055;-70
2021/01/29 05:04:49;;;;;;;26.33;13.85;;;9.60;99.90;;;;;;5093443;28;20040;-70
2021/01/29 05:08:20;;;;;;;14.25;6.47;;;9.60;99.90;;;;;;5072759;28;20463;-69
2021/01/29 05:11:24;;;;;;;38.03;19.35;;;9.60;99.90;;;;;;5061076;28;20051;-70
2021/01/29 05:14:09;;;;;;;17.02;9.20;;;9.60;99.90;;;;;;5074209;28;20036;-70
2021/01/29 05:16:48;;;;;;;24.25;12.80;;;9.50;99.90;;;;;;5073030;28;20055;-70
2021/01/29 05:19:50;;;;;;;10.48;5.15;;;9.50;99.90;;;;;;5089697;28;20031;-70
2021/01/29 05:22:45;;;;;;;4.72;2.13;;;9.50;99.90;;;;;;5053734;28;20049;-70
2021/01/29 05:25:48;;;;;;;6.95;2.78;;;9.40;99.90;;;;;;5073193;28;20059;-70
2021/01/29 05:28:28;;;;;;;2.58;1.70;;;9.40;99.90;;;;;;5093158;28;20032;-71
2021/01/29 05:31:19;;;;;;;2.22;1.20;;;9.40;99.90;;;;;;5083060;28;20020;-70
2021/01/29 05:34:01;;;;;;;1.67;1.00;;;9.40;99.90;;;;;;5087470;28;20052;-70
2021/01/29 05:36:55;;;;;;;3.50;0.93;;;9.40;99.90;;;;;;5085555;28;20028;-68
2021/01/29 05:39:46;;;;;;;1.40;0.80;;;9.50;99.90;;;;;;5090996;28;20036;-68
2021/01/29 05:42:44;;;;;;;2.30;1.15;;;9.40;99.90;;;;;;5077557;28;20032;-69
2021/01/29 05:45:36;;;;;;;5.05;2.90;;;9.50;99.90;;;;;;5088469;28;20036;-69
2021/01/29 05:48:27;;;;;;;2.95;1.77;;;9.40;99.90;;;;;;5050862;28;20157;-70
2021/01/29 05:51:15;;;;;;;2.90;1.80;;;9.40;99.90;;;;;;5074887;28;20055;-70
2021/01/29 05:53:50;;;;;;;3.53;1.98;;;9.40;99.90;;;;;;5081801;28;20028;-69
2021/01/29 05:56:26;;;;;;;4.18;2.08;;;9.40;99.90;;;;;;5083921;28;20373;-70
2021/01/29 05:59:19;;;;;;;3.78;1.27;;;9.40;99.90;;;;;;5083489;28;20032;-70
2021/01/29 06:02:14;;;;;;;2.50;0.90;;;9.40;99.90;;;;;;5073175;28;20033;-70
2021/01/29 06:04:41;;;;;;;4.97;2.97;;;9.40;99.90;;;;;;5073749;28;20028;-69
2021/01/29 06:07:10;;;;;;;0.88;0.40;;;9.50;99.90;;;;;;5091529;28;20381;-69
2021/01/29 06:10:00;;;;;;;3.03;0.68;;;9.60;99.90;;;;;;5084876;28;20028;-69
2021/01/29 06:12:59;;;;;;;2.25;0.77;;;9.60;99.90;;;;;;5080707;28;20040;-69
2021/01/29 06:15:51;;;;;;;1.48;0.70;;;9.50;99.90;;;;;;5072392;28;20037;-69
2021/01/29 06:18:42;;;;;;;1.83;0.90;;;9.60;99.90;;;;;;5076789;28;20044;-70
2021/01/29 06:21:46;;;;;;;2.42;1.27;;;9.70;99.90;;;;;;5072380;28;20052;-70
2021/01/29 06:24:40;;;;;;;2.08;0.68;;;9.70;99.90;;;;;;5072321;28;20496;-69
2021/01/29 06:27:39;;;;;;;0.93;0.32;;;9.90;99.90;;;;;;5072482;28;20048;-76
2021/01/29 06:30:20;;;;;;;2.05;0.30;;;10.50;99.90;;;;;;5090458;28;20377;-76
2021/01/29 06:33:05;;;;;;;;;;;10.60;99.90;;;;;;5073995;28;20048;-76
2021/01/29 06:36:01;;;;;;;0.25;0.10;;;10.70;99.90;;;;;;5082774;28;19908;-76
2021/01/29 06:38:33;;;;;;;0.47;0.10;;;10.60;99.90;;;;;;5082015;28;20047;-72
2021/01/29 06:41:36;;;;;;;0.50;0.10;;;10.60;99.90;;;;;;5072449;28;20111;-75
2021/01/29 06:44:12;;;;;;;1.27;0.60;;;10.60;99.90;;;;;;5072474;28;20234;-74
2021/01/29 06:47:07;;;;;;;0.30;0.20;;;10.70;99.90;;;;;;5071478;28;20036;-75
2021/01/29 06:50:00;;;;;;;1.02;0.30;;;10.60;99.90;;;;;;5072627;28;20049;-75
2021/01/29 06:52:51;;;;;;;0.20;0.10;;;10.60;99.90;;;;;;5071133;28;20381;-74
2021/01/29 06:55:20;;;;;;;0.47;0.28;;;10.60;99.90;;;;;;5071856;28;20370;-74
2021/01/29 06:58:15;;;;;;;1.65;0.20;;;10.50;99.90;;;;;;5090210;28;20044;-75
2021/01/29 07:00:59;;;;;;;0.60;0.20;;;10.50;99.90;;;;;;5070681;28;20044;-75
2021/01/29 07:03:43;;;;;;;1.35;0.20;;;10.50;99.90;;;;;;5072201;28;20040;-75
2021/01/29 07:06:35;;;;;;;1.33;0.17;;;10.40;99.90;;;;;;5082926;28;20036;-76
2021/01/29 07:09:18;;;;;;;0.38;0.15;;;10.50;99.90;;;;;;5074275;28;20036;-75
2021/01/29 07:11:57;;;;;;;0.30;0.17;;;10.40;99.90;;;;;;5085141;28;20031;-74
2021/01/29 07:14:55;;;;;;;1.45;0.30;;;10.40;99.90;;;;;;5071541;28;20055;-77
2021/01/29 07:17:51;;;;;;;0.47;0.20;;;10.30;99.90;;;;;;5071624;28;20033;-78
2021/01/29 07:20:47;;;;;;;1.13;0.30;;;10.30;99.90;;;;;;5071533;28;20047;-76
2021/01/29 07:23:42;;;;;;;0.25;0.10;;;10.20;99.90;;;;;;5071557;28;20037;-77
2021/01/29 07:26:08;;;;;;;1.02;0.40;;;10.20;99.90;;;;;;5071540;28;20044;-72
2021/01/29 07:29:05;;;;;;;3.25;0.30;;;10.30;99.90;;;;;;5070692;28;20470;-74
2021/01/29 07:31:34;;;;;;;0.10;0.10;;;10.30;99.90;;;;;;5071264;28;20386;-77
2021/01/29 07:34:31;;;;;;;1.25;0.30;;;10.30;99.90;;;;;;5085847;28;20040;-77
2021/01/29 07:37:01;;;;;;;1.75;0.28;;;10.30;99.90;;;;;;5071959;28;20484;-76
2021/01/29 07:39:54;;;;;;;1.08;0.30;;;10.40;99.90;;;;;;5071215;28;20024;-76
2021/01/29 07:43:06;;;;;;;0.45;0.20;;;10.30;99.90;;;;;;5078051;28;20484;-76
2021/01/29 07:45:38;;;;;;;4.55;1.20;;;10.40;99.90;;;;;;5068566;28;20056;-76
2021/01/29 07:48:34;;;;;;;0.55;0.20;;;10.50;99.90;;;;;;5083657;28;20037;-81
2021/01/29 07:51:34;;;;;;;2.80;0.32;;;10.50;99.90;;;;;;5071328;28;20040;-81
2021/01/29 07:54:28;;;;;;;3.22;0.70;;;10.60;99.90;;;;;;5073373;28;20044;-84
2021/01/29 07:57:22;;;;;;;2.45;0.93;;;10.60;99.90;;;;;;5071502;28;20036;-78
2021/01/29 08:00:45;;;;;;;1.08;0.32;;;10.70;99.90;;;;;;5071518;28;20424;-78
2021/01/29 08:03:20;;;;;;;1.95;0.73;;;10.80;99.90;;;;;;5008487;28;20049;-77
2021/01/29 08:06:04;;;;;;;1.42;0.50;;;10.80;99.90;;;;;;5012659;28;20446;-77
2021/01/29 08:08:52;;;;;;;1.83;0.43;;;10.80;99.90;;;;;;5059684;28;20056;-76
2021/01/29 08:11:19;;;;;;;0.93;0.25;;;10.80;99.90;;;;;;5090452;28;20362;-75
2021/01/29 08:14:08;;;;;;;1.15;0.20;;;11.00;99.90;;;;;;5082771;28;20048;-77
2021/01/29 08:17:12;;;;;;;1.63;0.50;;;11.00;99.90;;;;;;5045973;28;20583;-77
2021/01/29 08:20:14;;;;;;;1.45;0.43;;;11.00;99.90;;;;;;5051793;28;20045;-77
2021/01/29 08:22:44;;;;;;;0.70;0.20;;;11.10;99.90;;;;;;5077830;28;20024;-84
2021/01/29 08:25:35;;;;;;;0.55;0.20;;;11.10;99.90;;;;;;5088292;28;20024;-85
2021/01/29 08:28:04;;;;;;;0.98;0.30;;;11.20;99.90;;;;;;5075909;28;20492;-75
2021/01/29 08:31:26;;;;;;;3.30;0.40;;;11.20;99.90;;;;;;5081496;28;20040;-75
2021/01/29 08:34:14;;;;;;;1.13;0.20;;;11.30;99.90;;;;;;5076939;28;20060;-84
2021/01/29 08:37:13;;;;;;;1.23;0.30;;;11.40;99.90;;;;;;5084685;28;20039;-78
2021/01/29 08:40:25;;;;;;;0.95;0.30;;;11.50;99.90;;;;;;5074419;28;20405;-90
2021/01/29 08:43:13;;;;;;;2.97;0.65;;;11.50;99.90;;;;;;5056695;28;20040;-84
2021/01/29 08:45:51;;;;;;;1.65;0.30;;;11.40;99.90;;;;;;5073739;28;20033;-81
2021/01/29 08:48:20;;;;;;;2.53;0.30;;;11.30;99.90;;;;;;5074547;28;20036;-85
2021/01/29 08:51:04;;;;;;;2.70;0.57;;;11.20;99.90;;;;;;5088686;28;20047;-83
2021/01/29 08:53:48;;;;;;;1.63;0.40;;;11.20;99.90;;;;;;5073957;28;20035;-83
2021/01/29 08:56:50;;;;;;;3.28;0.50;;;11.40;99.90;;;;;;5084879;28;20032;-82
2021/01/29 08:59:21;;;;;;;2.05;0.55;;;11.30;99.90;;;;;;5088022;28;20405;-83
2021/01/29 09:02:02;;;;;;;1.60;0.50;;;11.30;99.90;;;;;;5081416;28;20036;-81
2021/01/29 09:04:41;;;;;;;2.17;0.32;;;11.20;99.90;;;;;;5073128;28;20468;-80
2021/01/29 09:07:21;;;;;;;2.80;0.50;;;11.20;99.90;;;;;;5073203;28;20025;-80
2021/01/29 09:09:49;;;;;;;5.30;0.57;;;11.30;99.90;;;;;;5079821;28;20032;-81
2021/01/29 09:12:24;;;;;;;1.27;0.50;;;11.40;99.90;;;;;;5090843;28;20361;-80
2021/01/29 09:14:57;;;;;;;2.95;0.55;;;11.50;99.90;;;;;;5073465;28;20044;-79
2021/01/29 09:17:29;;;;;;;4.05;0.73;;;11.60;99.90;;;;;;5073614;28;20051;-80
2021/01/29 09:19:59;;;;;;;6.65;0.85;;;11.60;99.90;;;;;;5081985;28;20029;-81
2021/01/29 09:22:51;;;;;;;2.28;0.57;;;11.60;99.90;;;;;;5073401;28;20036;-81
2021/01/29 09:25:41;;;;;;;4.82;1.08;;;11.60;99.90;;;;;;5073661;28;20028;-81
2021/01/29 09:28:46;;;;;;;8.68;1.15;;;11.60;99.90;;;;;;5073918;28;20040;-80
2021/01/29 09:31:35;;;;;;;5.25;0.93;;;11.50;99.90;;;;;;5029637;28;20040;-80
2021/01/29 09:34:12;;;;;;;7.45;1.10;;;11.50;99.90;;;;;;5017443;28;20054;-81
2021/01/29 09:37:05;;;;;;;2.78;0.98;;;11.60;99.90;;;;;;5021308;28;20052;-81
2021/01/29 09:39:47;;;;;;;2.35;1.17;;;11.60;99.90;;;;;;5006644;28;20038;-80
2021/01/29 09:42:24;;;;;;;4.25;0.82;;;11.50;99.90;;;;;;5017248;28;20141;-81
2021/01/29 09:45:01;;;;;;;5.22;1.67;;;11.50;99.90;;;;;;5013747;28;20038;-81
2021/01/29 09:47:31;;;;;;;4.85;1.83;;;11.50;99.90;;;;;;5010841;28;20053;-81
2021/01/29 09:50:09;;;;;;;7.13;1.25;;;11.50;99.90;;;;;;5021321;28;20508;-81
2021/01/29 09:52:54;;;;;;;4.38;1.00;;;11.50;99.90;;;;;;5022783;28;20045;-81
2021/01/29 09:55:26;;;;;;;5.55;0.85;;;11.50;99.90;;;;;;5011222;28;20185;-80
2021/01/29 09:58:10;;;;;;;6.40;0.90;;;11.50;99.90;;;;;;5023134;28;20057;-81
2021/01/29 10:00:40;;;;;;;10.45;2.10;;;11.50;99.90;;;;;;5019989;28;20056;-80
2021/01/29 10:03:23;;;;;;;7.68;1.95;;;11.50;99.90;;;;;;5070790;28;20041;-80
2021/01/29 10:05:51;;;;;;;6.90;1.00;;;11.50;99.90;;;;;;5072775;28;20461;-81
2021/01/29 10:08:23;;;;;;;5.82;1.48;;;11.40;99.90;;;;;;5072932;28;20358;-80
2021/01/29 10:10:59;;;;;;;5.72;1.00;;;11.40;99.90;;;;;;5073133;28;20028;-81
2021/01/29 10:13:52;;;;;;;5.72;1.52;;;11.40;99.90;;;;;;5072398;28;20028;-81
2021/01/29 10:16:37;;;;;;;8.93;1.50;;;11.40;99.90;;;;;;5077489;28;20039;-81
2021/01/29 10:19:20;;;;;;;5.45;1.75;;;11.40;99.90;;;;;;5081193;28;20378;-81
2021/01/29 10:21:59;;;;;;;3.53;1.00;;;11.50;99.90;;;;;;5090984;28;20035;-81
2021/01/29 10:24:38;;;;;;;6.40;1.00;;;11.60;99.90;;;;;;5077845;28;20043;-81
2021/01/29 10:27:25;;;;;;;7.25;0.82;;;11.60;99.90;;;;;;5087043;28;20029;-82
2021/01/29 10:30:17;;;;;;;5.97;1.20;;;11.60;99.90;;;;;;5072651;28;20033;-81
2021/01/29 10:32:56;;;;;;;5.05;1.70;;;11.60;99.90;;;;;;5042314;28;20048;-81
2021/01/29 10:35:35;;;;;;;4.88;1.98;;;11.70;99.90;;;;;;5072206;28;20047;-80
2021/01/29 10:38:19;;;;;;;7.38;2.40;;;11.70;99.90;;;;;;5072422;28;20059;-81
2021/01/29 10:41:01;;;;;;;5.97;2.45;;;11.70;99.90;;;;;;5071759;28;20032;-81
2021/01/29 10:43:27;;;;;;;7.60;2.80;;;11.80;99.90;;;;;;5089872;28;20389;-82
2021/01/29 10:46:08;;;;;;;6.72;2.40;;;11.70;99.90;;;;;;5085439;28;20036;-82
2021/01/29 10:48:56;;;;;;;3.33;0.93;;;11.70;99.90;;;;;;5072161;28;20048;-82
2021/01/29 10:51:59;;;;;;;5.80;1.88;;;11.60;98.80;;;;;;5071685;28;20497;-81
2021/01/29 10:54:35;;;;;;;3.30;1.08;;;11.70;99.80;;;;;;5085974;28;20040;-81
2021/01/29 10:57:38;;;;;;;10.25;3.20;;;11.80;98.80;;;;;;5072050;28;20024;-81
2021/01/29 11:00:19;;;;;;;7.32;1.85;;;11.70;99.50;;;;;;5072484;28;20044;-81
2021/01/29 11:02:49;;;;;;;3.17;1.50;;;11.60;99.30;;;;;;5089278;28;20036;-82
2021/01/29 11:05:26;;;;;;;5.30;2.15;;;11.60;99.90;;;;;;5077738;28;20025;-81
2021/01/29 11:08:01;;;;;;;7.10;2.05;;;11.60;99.90;;;;;;5072293;28;20044;-81
2021/01/29 11:10:33;;;;;;;4.72;1.88;;;11.70;99.90;;;;;;5086156;28;20461;-81
2021/01/29 11:13:26;;;;;;;2.97;0.73;;;11.70;99.50;;;;;;5080092;28;20040;-82
2021/01/29 11:16:04;;;;;;;5.25;0.90;;;11.70;99.00;;;;;;5072980;28;20033;-83
2021/01/29 11:18:37;;;;;;;3.08;0.70;;;11.70;97.50;;;;;;5071574;28;20052;-82
2021/01/29 11:21:28;;;;;;;6.63;0.90;;;11.70;98.50;;;;;;5082698;28;20454;-81
2021/01/29 11:24:00;;;;;;;7.25;1.10;;;11.70;98.30;;;;;;5083182;28;20474;-81
2021/01/29 11:26:29;;;;;;;8.18;1.13;;;11.70;98.20;;;;;;5081312;28;20039;-81
2021/01/29 11:29:26;;;;;;;4.53;1.10;;;11.80;98.20;;;;;;5071426;28;20442;-81
2021/01/29 11:32:04;;;;;;;5.85;1.67;;;11.80;97.20;;;;;;5071932;28;20080;-81
2021/01/29 11:34:33;;;;;;;7.88;1.08;;;11.90;96.10;;;;;;5071110;28;20504;-81
2021/01/29 11:37:24;;;;;;;4.30;1.05;;;12.10;95.10;;;;;;5072123;28;20028;-81
2021/01/29 11:40:01;;;;;;;4.82;0.90;;;12.30;94.60;;;;;;5075806;28;20351;-81
2021/01/29 11:42:38;;;;;;;7.50;1.70;;;12.40;92.70;;;;;;5075695;28;20052;-82
2021/01/29 11:45:19;;;;;;;7.25;1.40;;;12.30;92.80;;;;;;5078054;28;20036;-81
2021/01/29 11:47:49;;;;;;;6.13;0.98;;;12.40;92.70;;;;;;5088171;28;20384;-83
2021/01/29 11:50:23;;;;;;;5.80;1.10;;;12.20;92.70;;;;;;5075239;28;20039;-83
2021/01/29 11:53:22;;;;;;;5.32;0.95;;;12.30;92.60;;;;;;5075125;28;20517;-82
2021/01/29 11:56:08;;;;;;;5.40;1.15;;;12.60;93.00;;;;;;5043142;28;20045;-83
2021/01/29 11:59:08;;;;;;;3.30;0.82;;;12.60;91.00;;;;;;5093377;28;20036;-82
2021/01/29 12:01:56;;;;;;;5.10;1.50;;;12.50;91.20;;;;;;5089750;28;20055;-80
2021/01/29 12:04:26;;;;;;;7.72;1.17;;;12.30;91.30;;;;;;5092466;28;20039;-82
2021/01/29 12:07:03;;;;;;;4.93;1.08;;;12.20;91.40;;;;;;5078702;28;20401;-84
2021/01/29 12:09:40;;;;;;;6.55;1.58;;;12.10;91.60;;;;;;5074689;28;20045;-83
2021/01/29 12:12:34;;;;;;;7.68;1.10;;;12.00;91.70;;;;;;5075015;28;20052;-82
2021/01/29 12:15:25;;;;;;;6.35;0.95;;;11.90;92.00;;;;;;5091041;28;20044;-89
2021/01/29 12:17:57;;;;;;;7.63;1.27;;;11.90;92.30;;;;;;5082406;28;20037;-76
2021/01/29 12:20:35;;;;;;;6.60;1.55;;;11.80;93.10;;;;;;5074524;28;20040;-76
2021/01/29 12:23:10;;;;;;;4.97;0.68;;;11.80;93.30;;;;;;5086121;28;20043;-77
2021/01/29 12:26:07;;;;;;;5.47;1.00;;;11.80;93.50;;;;;;5074032;28;20051;-77
2021/01/29 12:29:02;;;;;;;2.83;0.80;;;11.70;95.20;;;;;;5074704;28;20056;-76
2021/01/29 12:31:37;;;;;;;5.38;1.20;;;11.50;99.90;;;;;;5074524;28;20036;-76
2021/01/29 12:34:28;;;;;;;9.10;1.00;;;11.10;99.90;;;;;;5074979;28;20394;-77
2021/01/29 12:37:03;;;;;;;7.13;0.90;;;10.90;99.90;;;;;;5074738;28;20047;-76
2021/01/29 12:39:44;;;;;;;7.97;1.42;;;10.90;99.90;;;;;;5074595;28;20033;-76
2021/01/29 12:42:16;;;;;;;;;;;10.90;99.90;;;;;;5087317;28;20052;-76
2021/01/29 12:45:04;;;;;;;9.65;1.75;;;10.80;99.90;;;;;;5073995;28;19916;-76
2021/01/29 12:47:55;;;;;;;6.47;1.63;;;10.70;99.90;;;;;;5085337;28;20457;-76
2021/01/29 12:50:56;;;;;;;4.95;1.30;;;10.60;99.90;;;;;;5073468;28;20044;-76
2021/01/29 12:53:25;;;;;;;;;;;10.30;99.90;;;;;;5063530;28;20047;-75
2021/01/29 12:56:10;;;;;;;10.00;1.58;;;10.20;99.90;;;;;;5074682;28;19909;-75
2021/01/29 12:58:40;;;;;;;5.75;1.52;;;10.20;99.90;;;;;;5081648;28;20032;-75
2021/01/29 13:01:09;;;;;;;9.68;1.95;;;10.10;99.90;;;;;;5093245;28;20039;-75
2021/01/29 13:03:56;;;;;;;8.70;2.10;;;9.90;99.90;;;;;;5091503;28;20114;-75
2021/01/29 13:06:25;;;;;;;9.80;1.38;;;9.60;99.90;;;;;;5089951;28;21039;-75
2021/01/29 13:09:23;;;;;;;8.07;2.15;;;9.40;99.90;;;;;;5089355;28;20047;-73
2021/01/29 13:12:11;;;;;;;11.90;2.40;;;9.50;99.90;;;;;;5090375;28;20461;-74
2021/01/29 13:14:54;;;;;;;9.60;2.13;;;9.50;99.90;;;;;;5091006;28;20024;-74
2021/01/29 13:17:27;;;;;;;5.85;1.70;;;9.50;99.90;;;;;;5088909;28;20043;-75
2021/01/29 13:20:03;;;;;;;10.55;1.95;;;9.60;99.90;;;;;;5089729;28;20024;-75
2021/01/29 13:22:40;;;;;;;10.55;2.33;;;9.80;99.90;;;;;;5096629;28;20394;-75
2021/01/29 13:25:10;;;;;;;7.32;1.98;;;9.90;99.90;;;;;;5091476;28;20365;-75
2021/01/29 13:27:50;;;;;;;12.10;1.88;;;10.10;99.90;;;;;;5090861;28;20048;-75
2021/01/29 13:30:27;;;;;;;12.13;3.97;;;10.20;99.90;;;;;;5088458;28;20466;-75
2021/01/29 13:32:55;;;;;;;9.85;1.88;;;10.30;99.90;;;;;;5087799;28;20044;-75
2021/01/29 13:35:30;;;;;;;8.32;1.42;;;10.50;99.90;;;;;;5089857;28;20397;-75
2021/01/29 13:38:29;;;;;;;7.00;1.20;;;10.60;99.90;;;;;;5089480;28;20028;-76
2021/01/29 13:41:18;;;;;;;3.97;1.80;;;10.70;99.90;;;;;;5089398;28;20055;-75
2021/01/29 13:43:45;;;;;;;4.40;1.10;;;10.80;99.90;;;;;;5082932;28;20029;-76
2021/01/29 13:46:32;;;;;;;7.80;2.50;;;10.90;99.90;;;;;;5081937;28;20035;-74
2021/01/29 13:49:36;;;;;;;6.00;1.48;;;11.00;99.90;;;;;;5079040;28;20044;-76
2021/01/29 13:52:21;;;;;;;6.85;0.90;;;10.90;99.90;;;;;;5089451;28;20039;-80
2021/01/29 13:54:48;;;;;;;6.38;1.95;;;10.80;99.90;;;;;;5086457;28;20044;-76
2021/01/29 13:57:44;;;;;;;4.78;0.95;;;10.90;99.90;;;;;;5087531;28;20040;-76
2021/01/29 14:00:25;;;;;;;9.27;1.75;;;10.80;99.90;;;;;;5085262;28;20028;-75
2021/01/29 14:03:25;;;;;;;5.63;1.77;;;10.70;99.90;;;;;;5086711;28;20103;-76
2021/01/29 14:05:52;;;;;;;4.47;1.10;;;10.80;99.90;;;;;;5079729;28;20532;-76
2021/01/29 14:08:18;;;;;;;12.18;2.53;;;10.90;99.90;;;;;;5072747;28;20055;-81
2021/01/29 14:10:56;;;;;;;7.20;2.80;;;10.80;99.90;;;;;;5072039;28;20049;-75
2021/01/29 14:14:00;;;;;;;4.88;1.50;;;10.90;99.90;;;;;;5085492;28;20035;-77
2021/01/29 14:16:38;;;;;;;3.58;0.95;;;10.90;99.90;;;;;;5072088;28;20044;-76
2021/01/29 14:19:27;;;;;;;8.48;2.38;;;10.90;99.90;;;;;;5072746;28;20374;-77
2021/01/29 14:22:27;;;;;;;6.38;2.60;;;11.00;99.90;;;;;;5072579;28;20032;-77